Decoded Metar for KERI (ERIE in PA, USA) (IATA:ERI) | Meteo·Mobile Aviation Weather
aviador You're here:

KERI Decoded Metar

ERIE in PA, USA
Report Time2019-02-16 16:51:00
UTC Time2019-02-16 17:09:57
Flight Rules mvfr MVFR
Wind290° at 08 kt
W.Decomp.*RWY 24: 4.0 kt HW 6.9 kt RCW
RWY 02: 1.4 kt HW 7.9 kt LCW
W.Rank290° ranks 12
Current wind is below 290° avg. (9.1)
Visibility9999 m
Phenomena:Light Snow
Clouds:Scattered 019 Hf
Overcast 028 Hf
Expected CloudBase > 2,000 ft AGL from Temp-Dew spread
Ceiling2,800 ft
Temp-2°C (ISA -16)
Dew Point-7°C (69% RH)
AAT-7.7°C
QNH1018 hPa
Density Alt-1,296 ft
Elevation728 ft
Report Wrong Elevation
Raw Report
KERI 161651Z 29008KT 9SM -SN SCT019 OVC028 M02/M07 A3006 RMK AO2
SNB50 SLP191 P0000 T10221072=

Extra information for KERI:More info

Metar Taf Metar & Taf Last 4 Metars F.Rules Stats Wind Profile Meteogram Temp Stats Airport Information Weather charts Add Link Nearby VenuesMetar ALERT Operation Metar Decoded Social comments

AIRNAV info for KERI